createdAt,value
2022-12-08T00:01:46.061Z,8.36
2022-12-08T00:04:13.046Z,8.72
2022-12-08T00:06:43.749Z,8.36
2022-12-08T00:09:22.069Z,8.76
2022-12-08T00:11:50.252Z,8.13
2022-12-08T00:14:19.235Z,8.41
2022-12-08T00:16:46.165Z,8.45
2022-12-08T00:19:14.304Z,8.69
2022-12-08T00:21:41.091Z,8.40
2022-12-08T00:24:09.131Z,8.70
2022-12-08T00:26:38.089Z,8.55
2022-12-08T00:29:05.610Z,8.32
2022-12-08T00:31:32.615Z,7.79
2022-12-08T00:34:00.219Z,8.23
2022-12-08T00:36:28.196Z,8.98
2022-12-08T00:39:00.334Z,8.43
2022-12-08T00:41:28.542Z,7.95
2022-12-08T00:43:57.863Z,7.99
2022-12-08T00:46:24.717Z,8.58
2022-12-08T00:48:51.585Z,8.28
2022-12-08T00:51:18.858Z,9.05
2022-12-08T00:53:47.659Z,9.03
2022-12-08T00:56:14.665Z,8.51
2022-12-08T00:58:41.418Z,6.72
2022-12-08T01:01:13.408Z,6.10
2022-12-08T01:03:40.688Z,6.48
2022-12-08T01:06:09.917Z,6.59
2022-12-08T01:08:39.308Z,6.86
2022-12-08T01:11:07.273Z,6.79
2022-12-08T01:13:34.118Z,7.16
2022-12-08T01:16:02.313Z,6.88
2022-12-08T01:18:30.874Z,6.56
2022-12-08T01:21:03.553Z,6.71
2022-12-08T01:23:30.897Z,7.47
2022-12-08T01:26:02.189Z,8.17
2022-12-08T01:28:29.220Z,7.71
2022-12-08T01:30:56.153Z,9.67
2022-12-08T01:33:22.973Z,9.06
2022-12-08T01:35:53.950Z,9.94
2022-12-08T01:38:20.966Z,8.80
2022-12-08T01:40:48.711Z,9.15
2022-12-08T01:43:18.229Z,9.40
2022-12-08T01:45:45.239Z,9.03
2022-12-08T01:48:18.970Z,9.35
2022-12-08T01:50:48.766Z,9.17
2022-12-08T01:53:21.780Z,8.90
2022-12-08T01:55:53.418Z,8.31
2022-12-08T01:58:25.353Z,7.76
2022-12-08T02:00:53.327Z,7.16
2022-12-08T02:03:25.334Z,6.73
2022-12-08T02:05:52.945Z,7.56
2022-12-08T02:08:23.506Z,8.00
2022-12-08T02:10:52.412Z,7.49
2022-12-08T02:13:21.800Z,7.19
2022-12-08T02:16:02.818Z,6.89
2022-12-08T02:19:14.835Z,6.29
2022-12-08T02:21:46.847Z,6.50
2022-12-08T02:24:20.733Z,5.73
2022-12-08T02:27:13.845Z,5.57
2022-12-08T02:30:19.907Z,5.38
2022-12-08T02:33:41.287Z,5.34
2022-12-08T02:36:16.193Z,5.11
2022-12-08T02:38:53.753Z,4.85
2022-12-08T02:41:28.596Z,4.61
2022-12-08T02:44:08.572Z,5.37
2022-12-08T02:46:40.162Z,5.48
2022-12-08T02:49:07.836Z,5.66
2022-12-08T02:51:36.297Z,5.28
2022-12-08T02:54:03.886Z,5.52
2022-12-08T02:56:48.382Z,5.97
2022-12-08T02:59:33.007Z,5.98
2022-12-08T03:02:25.011Z,6.67
2022-12-08T03:05:01.023Z,6.29
2022-12-08T03:07:35.908Z,6.21
2022-12-08T03:10:10.302Z,6.74
2022-12-08T03:12:43.689Z,7.02
2022-12-08T03:15:16.767Z,6.29
2022-12-08T03:17:48.268Z,6.47
2022-12-08T03:20:20.685Z,6.58
2022-12-08T03:22:50.643Z,6.69
2022-12-08T03:25:24.288Z,7.04
2022-12-08T03:27:51.905Z,6.60
2022-12-08T03:30:18.936Z,6.07
2022-12-08T03:32:52.763Z,6.08
2022-12-08T03:35:24.703Z,5.54
2022-12-08T03:38:02.151Z,5.77
2022-12-08T03:40:29.064Z,5.67
2022-12-08T03:42:55.784Z,6.13
2022-12-08T03:45:22.522Z,5.66
2022-12-08T03:47:49.578Z,5.20
2022-12-08T03:50:18.457Z,5.42
2022-12-08T03:52:45.425Z,5.91
2022-12-08T03:55:13.661Z,6.09
2022-12-08T03:57:42.930Z,6.26
2022-12-08T04:00:14.384Z,5.97
2022-12-08T04:02:44.428Z,5.40
2022-12-08T04:05:11.588Z,5.33
2022-12-08T04:07:38.765Z,5.11
2022-12-08T04:10:06.921Z,5.17
2022-12-08T04:12:36.028Z,5.38
2022-12-08T04:15:03.399Z,4.85
2022-12-08T04:17:31.569Z,4.14
2022-12-08T04:19:58.672Z,3.62
2022-12-08T04:22:25.550Z,3.54
2022-12-08T04:24:52.502Z,3.66
2022-12-08T04:27:19.450Z,3.79
2022-12-08T04:29:52.599Z,4.28
2022-12-08T04:32:19.727Z,3.95
2022-12-08T04:34:51.138Z,4.20
2022-12-08T04:37:17.946Z,4.08
2022-12-08T04:39:44.926Z,3.85
2022-12-08T04:42:11.922Z,3.50
2022-12-08T04:44:38.916Z,3.52
2022-12-08T04:47:07.218Z,3.80
2022-12-08T04:49:41.595Z,3.72
2022-12-08T04:52:08.351Z,3.73
2022-12-08T04:54:37.585Z,3.49
2022-12-08T04:57:05.797Z,3.65
2022-12-08T04:59:33.713Z,3.37
2022-12-08T05:02:03.967Z,3.72
2022-12-08T05:04:32.551Z,3.46
2022-12-08T05:06:59.583Z,4.20
2022-12-08T05:09:28.838Z,4.28
2022-12-08T05:11:57.929Z,4.50
2022-12-08T05:14:24.673Z,4.44
2022-12-08T05:16:51.642Z,4.69
2022-12-08T05:19:19.790Z,4.68
2022-12-08T05:21:47.981Z,4.48
2022-12-08T05:24:16.760Z,4.11
2022-12-08T05:26:46.337Z,4.00
2022-12-08T05:29:13.519Z,3.87
2022-12-08T05:31:40.930Z,3.99
2022-12-08T05:34:07.836Z,3.82
2022-12-08T05:36:36.769Z,3.81
2022-12-08T05:39:05.109Z,4.25
2022-12-08T05:41:31.888Z,3.98
2022-12-08T05:43:58.765Z,3.64
2022-12-08T05:46:25.619Z,3.53
2022-12-08T05:48:53.061Z,3.77
2022-12-08T05:51:22.181Z,3.54
2022-12-08T05:53:50.868Z,3.63
2022-12-08T05:56:20.178Z,4.01
2022-12-08T05:58:48.186Z,3.59
2022-12-08T06:01:23.595Z,3.79
2022-12-08T06:03:50.875Z,4.12
2022-12-08T06:06:18.524Z,3.67
2022-12-08T06:08:47.749Z,3.44
2022-12-08T06:11:19.982Z,3.46
2022-12-08T06:13:47.446Z,3.30
2022-12-08T06:16:15.440Z,3.22
2022-12-08T06:18:43.713Z,3.35
2022-12-08T06:21:12.852Z,3.64
2022-12-08T06:23:40.132Z,3.38
2022-12-08T06:26:09.991Z,2.99
2022-12-08T06:28:39.397Z,3.06
2022-12-08T06:31:08.458Z,3.19
2022-12-08T06:33:37.692Z,3.26
2022-12-08T06:36:05.003Z,3.45
2022-12-08T06:38:32.764Z,2.98
2022-12-08T06:41:00.110Z,2.89
2022-12-08T06:43:27.953Z,3.26
2022-12-08T06:45:58.154Z,3.16
2022-12-08T06:48:25.545Z,3.35
2022-12-08T06:50:52.483Z,3.20
2022-12-08T06:53:19.194Z,3.36
2022-12-08T06:55:59.274Z,3.23
2022-12-08T06:58:26.929Z,3.26
2022-12-08T07:00:57.539Z,3.18
2022-12-08T07:03:24.381Z,3.15
2022-12-08T07:06:01.922Z,3.41
2022-12-08T07:08:34.894Z,3.25
2022-12-08T07:11:08.106Z,3.18
2022-12-08T07:13:35.196Z,2.70
2022-12-08T07:16:05.582Z,2.52
2022-12-08T07:18:32.721Z,2.60
2022-12-08T07:21:03.861Z,2.46
2022-12-08T07:23:31.075Z,2.27
2022-12-08T07:26:03.070Z,2.33
2022-12-08T07:28:34.146Z,2.45
2022-12-08T07:31:07.766Z,2.73
2022-12-08T07:33:36.821Z,2.65
2022-12-08T07:36:12.700Z,2.64
2022-12-08T07:38:41.543Z,3.20
2022-12-08T07:41:15.038Z,2.68
2022-12-08T07:43:44.948Z,2.29
2022-12-08T07:46:16.793Z,2.93
2022-12-08T07:48:44.567Z,2.72
2022-12-08T07:51:13.816Z,2.69
2022-12-08T07:53:50.059Z,3.01
2022-12-08T07:56:21.665Z,3.01
2022-12-08T07:58:49.654Z,2.81
2022-12-08T08:01:23.728Z,2.72
2022-12-08T08:03:51.119Z,2.38
2022-12-08T08:06:18.052Z,2.29
2022-12-08T08:08:47.382Z,2.55
2022-12-08T08:11:20.922Z,2.58
2022-12-08T08:13:50.458Z,2.40
2022-12-08T08:16:18.309Z,2.65
2022-12-08T08:18:48.426Z,2.89
2022-12-08T08:21:43.730Z,2.94
2022-12-08T08:24:03.401Z,2.64
2022-12-08T08:26:30.342Z,2.38
2022-12-08T08:28:58.463Z,2.37
2022-12-08T08:31:25.709Z,2.39
2022-12-08T08:33:54.485Z,2.10
2022-12-08T08:36:22.420Z,1.98
2022-12-08T08:38:49.773Z,1.92
2022-12-08T08:41:16.853Z,2.33
2022-12-08T08:43:44.891Z,2.11
2022-12-08T08:46:11.983Z,2.06
2022-12-08T08:48:40.743Z,2.42
2022-12-08T08:51:10.708Z,2.49
2022-12-08T08:53:38.635Z,2.52
2022-12-08T08:56:09.227Z,2.55
2022-12-08T08:58:37.541Z,2.42
2022-12-08T09:01:07.611Z,2.45
2022-12-08T09:03:34.721Z,2.75
2022-12-08T09:06:04.149Z,3.26
2022-12-08T09:08:33.522Z,2.87
2022-12-08T09:11:00.690Z,2.27
2022-12-08T09:13:28.864Z,2.47
2022-12-08T09:15:57.705Z,2.21
2022-12-08T09:18:25.099Z,2.52
2022-12-08T09:20:57.392Z,2.24
2022-12-08T09:23:25.010Z,1.95
2022-12-08T09:25:55.452Z,2.07
2022-12-08T09:28:23.385Z,1.96
2022-12-08T09:30:51.762Z,1.96
2022-12-08T09:33:18.744Z,2.05
2022-12-08T09:35:46.379Z,1.97
2022-12-08T09:38:14.017Z,2.24
2022-12-08T09:40:49.046Z,2.29
2022-12-08T09:43:43.143Z,2.31
2022-12-08T09:46:16.693Z,2.30
2022-12-08T09:48:50.633Z,1.98
2022-12-08T09:51:18.413Z,2.40
2022-12-08T09:53:50.843Z,2.54
2022-12-08T09:56:22.819Z,2.42
2022-12-08T09:58:58.180Z,2.20
2022-12-08T10:01:30.059Z,2.30
2022-12-08T10:03:57.301Z,2.32
2022-12-08T10:06:30.673Z,2.70
2022-12-08T10:09:12.475Z,2.78
2022-12-08T10:11:47.090Z,2.50
2022-12-08T10:14:24.668Z,2.40
2022-12-08T10:16:58.363Z,2.57
2022-12-08T10:19:28.881Z,2.73
2022-12-08T10:21:57.240Z,2.49
2022-12-08T10:24:31.615Z,2.49
2022-12-08T10:26:59.308Z,2.40
2022-12-08T10:29:32.130Z,2.71
2022-12-08T10:32:01.607Z,3.02
2022-12-08T10:34:32.365Z,3.03
2022-12-08T10:36:59.661Z,2.76
2022-12-08T10:39:31.606Z,3.32
2022-12-08T10:42:10.059Z,3.06
2022-12-08T10:45:19.154Z,2.75
2022-12-08T10:47:56.574Z,2.74
2022-12-08T10:50:30.713Z,2.30
2022-12-08T10:52:59.511Z,2.02
2022-12-08T10:55:28.572Z,1.65
2022-12-08T10:57:55.710Z,1.99
2022-12-08T11:00:26.966Z,1.98
2022-12-08T11:02:56.649Z,2.18
2022-12-08T11:05:28.407Z,1.91
2022-12-08T11:07:56.526Z,2.02
2022-12-08T11:10:33.511Z,1.96
2022-12-08T11:13:06.079Z,1.95
2022-12-08T11:15:39.028Z,1.78
2022-12-08T11:18:24.667Z,1.64
2022-12-08T11:21:06.507Z,1.43
2022-12-08T11:23:37.047Z,1.28
2022-12-08T11:26:13.809Z,1.12
2022-12-08T11:28:40.764Z,1.51
2022-12-08T11:31:22.119Z,1.52
2022-12-08T11:33:51.824Z,1.25
2022-12-08T11:36:22.291Z,1.22
2022-12-08T11:38:52.338Z,1.22
2022-12-08T11:41:24.189Z,1.16
2022-12-08T11:43:57.347Z,1.44
2022-12-08T11:46:32.562Z,1.48
2022-12-08T11:49:06.339Z,1.52
2022-12-08T11:51:40.904Z,1.27
2022-12-08T11:56:52.059Z,1.49
2022-12-08T11:59:26.347Z,1.29
2022-12-08T12:01:58.418Z,1.29
2022-12-08T12:04:33.092Z,1.20
2022-12-08T12:07:30.493Z,1.76
2022-12-08T12:10:11.650Z,1.94
2022-12-08T12:12:57.506Z,2.21
2022-12-08T12:16:06.384Z,1.92
2022-12-08T12:18:41.643Z,1.75
2022-12-08T12:21:14.296Z,1.45
2022-12-08T12:23:45.005Z,2.16
2022-12-08T12:26:19.275Z,1.55
2022-12-08T12:28:52.128Z,1.70
2022-12-08T12:31:23.267Z,1.40
2022-12-08T12:33:55.286Z,1.41
2022-12-08T12:36:22.268Z,1.17
2022-12-08T12:38:52.887Z,1.28
2022-12-08T12:41:25.969Z,1.26
2022-12-08T12:44:43.594Z,1.18
2022-12-08T12:47:51.023Z,1.35
2022-12-08T12:50:42.425Z,1.17
2022-12-08T12:53:43.484Z,1.23
2022-12-08T12:56:10.492Z,1.35
2022-12-08T12:58:40.143Z,1.09
2022-12-08T13:01:48.984Z,1.23
2022-12-08T13:04:30.999Z,1.51
2022-12-08T13:06:59.903Z,1.61
2022-12-08T13:09:34.083Z,1.50
2022-12-08T13:14:33.735Z,1.29
2022-12-08T13:17:05.479Z,1.29
2022-12-08T13:19:33.675Z,1.39
2022-12-08T13:22:02.827Z,1.61
2022-12-08T13:24:35.601Z,1.38
2022-12-08T13:27:29.707Z,1.21
2022-12-08T13:30:26.375Z,1.21
2022-12-08T13:35:56.862Z,1.08
2022-12-08T13:38:30.925Z,1.12
2022-12-08T13:41:03.445Z,1.14
2022-12-08T13:43:51.287Z,1.23
2022-12-08T13:56:43.438Z,1.34
2022-12-08T13:58:04.992Z,1.14
2022-12-08T14:00:32.309Z,1.32
2022-12-08T14:03:02.576Z,1.16
2022-12-08T14:06:11.179Z,1.19
2022-12-08T14:08:58.381Z,1.18
2022-12-08T14:11:27.016Z,1.19
2022-12-08T14:13:54.565Z,1.06
2022-12-08T14:16:33.141Z,1.04
2022-12-08T14:19:19.552Z,1.03
2022-12-08T14:21:57.449Z,1.27
2022-12-08T14:24:25.811Z,1.24
2022-12-08T14:26:57.855Z,1.14
2022-12-08T14:29:39.564Z,1.19
2022-12-08T14:32:20.654Z,1.26
2022-12-08T14:34:52.577Z,1.35
2022-12-08T14:37:20.745Z,1.14
2022-12-08T14:39:50.904Z,1.26
2022-12-08T14:42:23.039Z,1.35
2022-12-08T14:45:04.819Z,1.26
2022-12-08T14:47:33.367Z,1.20
2022-12-08T14:50:00.657Z,1.01
2022-12-08T14:52:30.272Z,1.27
2022-12-08T14:54:58.433Z,1.64
2022-12-08T14:57:34.465Z,1.62
2022-12-08T15:00:08.721Z,1.45
2022-12-08T15:02:43.626Z,1.25
2022-12-08T15:05:14.972Z,1.37
2022-12-08T15:07:49.445Z,1.13
2022-12-08T15:10:24.460Z,1.06
2022-12-08T15:13:01.205Z,1.04
2022-12-08T15:15:28.767Z,0.98
2022-12-08T15:18:02.485Z,1.15
2022-12-08T15:20:40.987Z,1.17
2022-12-08T15:23:36.433Z,1.13
2022-12-08T15:26:05.302Z,1.16
2022-12-08T15:28:33.769Z,1.23
2022-12-08T15:31:01.267Z,1.23
2022-12-08T15:33:28.261Z,1.59
2022-12-08T15:35:55.370Z,1.74
2022-12-08T15:38:24.746Z,1.90
2022-12-08T15:40:52.428Z,1.91
2022-12-08T15:43:19.980Z,2.36
2022-12-08T15:45:58.268Z,2.72
2022-12-08T15:48:27.641Z,2.74
2022-12-08T15:50:55.265Z,3.02
2022-12-08T15:53:22.316Z,3.26
2022-12-08T15:56:18.986Z,3.20
2022-12-08T15:58:55.253Z,3.83
2022-12-08T16:01:27.065Z,4.16
2022-12-08T16:07:22.540Z,3.94
2022-12-08T16:09:42.758Z,3.65
2022-12-08T16:12:14.769Z,7.31
2022-12-08T16:17:33.062Z,10.05
2022-12-08T16:20:02.066Z,8.74
2022-12-08T16:22:54.213Z,10.05
2022-12-08T16:25:19.966Z,10.98
2022-12-08T16:28:17.779Z,12.52
2022-12-08T16:30:37.125Z,10.00
2022-12-08T16:33:05.934Z,8.10
2022-12-08T16:35:33.660Z,6.16
2022-12-08T16:38:00.446Z,8.70
2022-12-08T16:40:27.362Z,9.48
2022-12-08T16:42:54.469Z,9.54
2022-12-08T16:45:23.514Z,9.84
2022-12-08T16:47:51.858Z,7.42
2022-12-08T16:50:29.506Z,5.66
2022-12-08T16:53:00.984Z,4.59
2022-12-08T16:55:29.508Z,4.02
2022-12-08T16:57:57.593Z,3.27
2022-12-08T17:00:26.453Z,3.73
2022-12-08T17:02:55.201Z,3.67
2022-12-08T17:05:27.174Z,3.17
2022-12-08T17:07:54.522Z,2.80
2022-12-08T17:10:24.311Z,2.76
2022-12-08T17:12:51.952Z,2.42
2022-12-08T17:15:22.815Z,2.22
2022-12-08T17:17:50.826Z,2.69
2022-12-08T17:20:20.598Z,2.59
2022-12-08T17:22:50.027Z,2.56
2022-12-08T17:25:17.212Z,2.93
2022-12-08T17:27:45.052Z,2.76
2022-12-08T17:30:12.908Z,2.97
2022-12-08T17:32:40.428Z,2.29
2022-12-08T17:35:07.983Z,1.91
2022-12-08T17:37:35.217Z,2.30
2022-12-08T17:40:04.618Z,1.93
2022-12-08T17:42:31.797Z,1.80
2022-12-08T17:45:03.068Z,1.83
2022-12-08T17:47:30.158Z,2.31
2022-12-08T17:49:58.507Z,2.18
2022-12-08T17:52:25.289Z,1.94
2022-12-08T17:54:52.188Z,1.59
2022-12-08T17:57:20.644Z,1.43
2022-12-08T17:59:48.719Z,1.17
2022-12-08T18:02:15.561Z,1.20
2022-12-08T18:04:43.731Z,1.17
2022-12-08T18:07:11.716Z,1.04
2022-12-08T18:09:39.944Z,0.99
2022-12-08T18:12:07.449Z,1.29
2022-12-08T18:14:36.731Z,1.17
2022-12-08T18:17:03.848Z,1.06
2022-12-08T18:19:31.057Z,1.17
2022-12-08T18:21:57.968Z,1.43
2022-12-08T18:24:25.988Z,1.18
2022-12-08T18:26:53.095Z,1.44
2022-12-08T18:29:20.484Z,1.70
2022-12-08T18:31:48.825Z,1.19
2022-12-08T18:34:16.856Z,1.14
2022-12-08T18:36:43.721Z,0.96
2022-12-08T18:39:21.488Z,0.81
2022-12-08T18:41:48.285Z,0.93
2022-12-08T18:44:14.999Z,15.57
2022-12-08T18:46:43.021Z,11.12
2022-12-08T18:49:12.169Z,6.66
2022-12-08T18:51:39.567Z,4.10
2022-12-08T18:54:06.800Z,2.46
2022-12-08T18:56:35.579Z,1.59
2022-12-08T18:59:04.680Z,1.23
2022-12-08T19:01:34.377Z,1.15
2022-12-08T19:04:27.330Z,1.36
2022-12-08T19:06:55.691Z,1.19
2022-12-08T19:09:22.476Z,1.37
2022-12-08T19:11:49.370Z,1.48
2022-12-08T19:14:16.210Z,1.12
2022-12-08T19:16:43.294Z,0.97
2022-12-08T19:19:10.022Z,0.81
2022-12-08T19:21:42.907Z,0.86
2022-12-08T19:24:15.369Z,0.76
2022-12-08T19:26:42.744Z,0.59
2022-12-08T19:29:09.751Z,0.48
2022-12-08T19:31:37.936Z,0.50
2022-12-08T19:34:07.285Z,0.44
2022-12-08T19:36:34.659Z,0.33
2022-12-08T19:39:05.567Z,0.64
2022-12-08T19:41:44.384Z,0.43
2022-12-08T19:44:17.721Z,0.67
2022-12-08T19:46:44.605Z,0.74
2022-12-08T19:49:11.530Z,0.91
2022-12-08T19:51:38.398Z,0.82
2022-12-08T19:54:07.873Z,0.73
2022-12-08T19:56:36.229Z,0.63
2022-12-08T19:59:08.416Z,0.53
2022-12-08T20:01:36.879Z,0.42
2022-12-08T20:04:04.529Z,0.41
2022-12-08T20:06:32.011Z,0.69
2022-12-08T20:08:58.938Z,0.65
2022-12-08T20:11:26.125Z,5.07
2022-12-08T20:13:54.466Z,4.17
2022-12-08T20:16:21.248Z,2.83
2022-12-08T20:18:49.968Z,2.69
2022-12-08T20:21:17.798Z,5.65
2022-12-08T20:23:44.729Z,4.21
2022-12-08T20:26:14.906Z,3.44
2022-12-08T20:28:41.717Z,2.08
2022-12-08T20:31:17.728Z,2.25
2022-12-08T20:33:44.639Z,3.10
2022-12-08T20:36:15.725Z,2.10
2022-12-08T20:38:42.557Z,1.47
2022-12-08T20:41:09.782Z,1.23
2022-12-08T20:43:36.815Z,1.26
2022-12-08T20:46:06.320Z,1.05
2022-12-08T20:48:35.618Z,1.19
2022-12-08T20:51:03.325Z,1.03
2022-12-08T20:53:30.865Z,1.21
2022-12-08T20:55:58.918Z,0.83
2022-12-08T20:58:26.018Z,0.63
2022-12-08T21:00:56.343Z,0.47
2022-12-08T21:03:23.294Z,0.43
2022-12-08T21:05:52.901Z,0.39
2022-12-08T21:08:20.408Z,0.63
2022-12-08T21:10:54.829Z,0.48
2022-12-08T21:13:21.825Z,0.49
2022-12-08T21:15:48.776Z,0.33
2022-12-08T21:18:16.960Z,0.22
2022-12-08T21:20:44.532Z,0.25
2022-12-08T21:23:12.933Z,0.18
2022-12-08T21:25:41.928Z,0.14
2022-12-08T21:28:10.572Z,0.12
2022-12-08T21:30:38.810Z,0.13
2022-12-08T21:33:06.268Z,0.11
2022-12-08T21:35:34.875Z,0.11
2022-12-08T21:38:01.892Z,0.10
2022-12-08T21:40:30.559Z,0.10
2022-12-08T21:42:59.645Z,0.10
2022-12-08T21:45:26.504Z,0.19
2022-12-08T21:47:54.072Z,0.39
2022-12-08T21:50:21.600Z,0.58
2022-12-08T21:52:50.384Z,0.40
2022-12-08T21:55:17.747Z,0.30
2022-12-08T21:57:46.286Z,0.30
2022-12-08T22:00:15.913Z,0.30
2022-12-08T22:02:43.539Z,0.24
2022-12-08T22:05:10.792Z,0.32
2022-12-08T22:07:39.370Z,0.24
2022-12-08T22:10:10.280Z,0.17
2022-12-08T22:12:38.236Z,0.14
2022-12-08T22:15:09.421Z,0.12
2022-12-08T22:17:36.978Z,0.11
2022-12-08T22:20:06.472Z,0.14
2022-12-08T22:22:34.434Z,0.17
2022-12-08T22:25:01.928Z,0.16
2022-12-08T22:27:28.973Z,0.44
2022-12-08T22:29:57.991Z,0.28
2022-12-08T22:32:26.160Z,0.20
2022-12-08T22:34:53.319Z,0.15
2022-12-08T22:37:20.539Z,0.13
2022-12-08T22:39:47.599Z,0.11
2022-12-08T22:42:14.334Z,0.11
2022-12-08T22:44:41.538Z,0.10
2022-12-08T22:47:08.426Z,0.10
2022-12-08T22:49:37.813Z,0.10
2022-12-08T22:52:04.994Z,0.10
2022-12-08T22:54:32.564Z,0.12
2022-12-08T22:56:59.369Z,0.20
2022-12-08T22:59:26.097Z,0.16
2022-12-08T23:01:54.116Z,0.22
2022-12-08T23:04:21.286Z,0.21
2022-12-08T23:06:49.689Z,0.21
2022-12-08T23:09:16.587Z,0.37
2022-12-08T23:11:46.556Z,0.31
2022-12-08T23:14:15.198Z,0.21
2022-12-08T23:16:43.175Z,0.16
2022-12-08T23:19:10.059Z,0.18
2022-12-08T23:21:36.973Z,0.19
2022-12-08T23:24:05.754Z,0.19
2022-12-08T23:26:33.676Z,0.15
2022-12-08T23:29:01.208Z,0.28
2022-12-08T23:31:29.848Z,0.21
2022-12-08T23:33:56.928Z,0.16
2022-12-08T23:36:24.460Z,0.16
2022-12-08T23:38:52.346Z,0.18
2022-12-08T23:41:20.635Z,0.19
2022-12-08T23:43:49.874Z,0.15
2022-12-08T23:46:19.690Z,0.12
2022-12-08T23:48:46.853Z,0.11
2022-12-08T23:51:14.522Z,0.29
2022-12-08T23:53:41.580Z,0.43
2022-12-08T23:56:10.600Z,0.50
2022-12-08T23:58:40.086Z,0.45
